This is the latest recevied weather packets stored in our database for station/object W8RD. If no packets are shown the sender has not sent any weather packets the latest 1 day(s).
| Time | Temp. | Humidity | Pressure | Rain* | Wind** | Luminosity | Snow |
|---|---|---|---|---|---|---|---|
| 1778034719 | 23.33° C | 84% | 1016.8 hPa | 0 mm | 0 m/s | 0 W/m² | - |
| 1778034119 | 23.33° C | 83% | 1017 hPa | 0 mm | 0 m/s | 0 W/m² | - |
| 1778033520 | 23.89° C | 82% | 1016.9 hPa | 0 mm | 0 m/s | 0 W/m² | - |
| 1778032914 | 23.33° C | 83% | 1016.8 hPa | 0 mm | 0 m/s | 0 W/m² | - |
| 1778032309 | 23.33° C | 83% | 1016.6 hPa | 0 mm | 0 m/s | 0 W/m² | - |
| 1778031708 | 23.89° C | 81% | 1016.5 hPa | 0 mm | 0 m/s | 0 W/m² | - |
| 1778031103 | 23.89° C | 81% | 1016.5 hPa | 0 mm | 0 m/s | 0 W/m² | - |
| 1778030501 | 23.89° C | 81% | 1016.2 hPa | 0 mm | 0 m/s | 0 W/m² | - |
| 1778029901 | 23.89° C | 80% | 1016.3 hPa | 0 mm | 0 m/s | 0 W/m² | - |
| 1778029296 | 23.89° C | 80% | 1016.3 hPa | 0 mm | 0 m/s | 0 W/m² | - |
| 1778028696 | 23.89° C | 79% | 1016.2 hPa | 0 mm | 0 m/s | 0 W/m² | - |
| 1778028095 | 24.44° C | 78% | 1016.2 hPa | 0 mm | 0 m/s | 0 W/m² | - |
| 1778027493 | 24.44° C | 78% | 1015.9 hPa | 0 mm | 0 m/s | 0 W/m² | - |
| 1778026891 | 24.44° C | 77% | 1015.9 hPa | 0 mm | 0 m/s | 0 W/m² | - |
| 1778026291 | 25° C | 76% | 1015.9 hPa | 0 mm | 0 m/s | 1 W/m² | - |
| 1778025685 | 25° C | 75% | 1015.9 hPa | 0 mm | 0.45 m/s, 325° | 3 W/m² | - |
| 1778025080 | 25° C | 74% | 1015.6 hPa | 0 mm | 0.45 m/s, 305° | 9 W/m² | - |
| 1778024479 | 25.56° C | 73% | 1015.8 hPa | 0 mm | 0.45 m/s, 322° | 15 W/m² | - |
| 1778023874 | 26.11° C | 71% | 1015.5 hPa | 0 mm | 0 m/s | 21 W/m² | - |
| 1778023275 | 26.11° C | 71% | 1015.7 hPa | 0 mm | 0.45 m/s, 338° | 38 W/m² | - |
| 1778022670 | 26.11° C | 70% | 1015.6 hPa | 0 mm | 0.45 m/s, 290° | 47 W/m² | - |
| 1778022069 | 26.67° C | 70% | 1015.8 hPa | 0 mm | 0.89 m/s, 291° | 46 W/m² | - |
| 1778021468 | 26.11° C | 70% | 1015.7 hPa | 0 mm | 0.89 m/s, 218° | 53 W/m² | - |
| 1778020868 | 26.67° C | 68% | 1015.9 hPa | 0 mm | 0 m/s | 60 W/m² | - |
| 1778020266 | 27.22° C | 66% | 1015.8 hPa | 0 mm | 0.89 m/s, 333° | 118 W/m² | - |
* Rain latest hour (hover to see other rain measurements)
** Current wind speed in m/s (hover to see current wind gust speed)